createdAt,value
2022-12-11T00:00:38.347Z,21.52
2022-12-11T00:03:10.292Z,20.92
2022-12-11T00:05:43.302Z,20.72
2022-12-11T00:08:11.021Z,21.28
2022-12-11T00:10:38.880Z,21.27
2022-12-11T00:13:06.617Z,20.70
2022-12-11T00:15:34.362Z,20.02
2022-12-11T00:18:01.896Z,21.27
2022-12-11T00:20:31.358Z,20.35
2022-12-11T00:22:59.102Z,21.50
2022-12-11T00:25:27.732Z,21.03
2022-12-11T00:27:55.281Z,21.66
2022-12-11T00:30:22.857Z,20.67
2022-12-11T00:32:52.120Z,21.29
2022-12-11T00:35:20.075Z,21.15
2022-12-11T00:37:49.498Z,21.64
2022-12-11T00:40:17.166Z,21.44
2022-12-11T00:42:44.644Z,21.61
2022-12-11T00:45:12.362Z,21.76
2022-12-11T00:47:40.014Z,21.17
2022-12-11T00:50:08.420Z,21.29
2022-12-11T00:52:35.913Z,20.83
2022-12-11T00:55:05.529Z,21.39
2022-12-11T00:57:32.649Z,21.13
2022-12-11T01:00:00.285Z,21.08
2022-12-11T01:02:27.970Z,21.78
2022-12-11T01:04:56.793Z,21.66
2022-12-11T01:07:24.313Z,20.44
2022-12-11T01:09:52.367Z,21.84
2022-12-11T01:12:21.338Z,21.39
2022-12-11T01:14:48.913Z,22.27
2022-12-11T01:17:16.423Z,21.32
2022-12-11T01:19:44.355Z,21.17
2022-12-11T01:22:11.845Z,21.71
2022-12-11T01:24:39.418Z,21.56
2022-12-11T01:27:06.897Z,21.73
2022-12-11T01:29:35.825Z,21.54
2022-12-11T01:32:03.918Z,21.93
2022-12-11T01:34:31.583Z,20.95
2022-12-11T01:36:59.285Z,21.52
2022-12-11T01:39:26.829Z,21.71
2022-12-11T01:41:57.564Z,21.31
2022-12-11T01:45:03.110Z,21.38
2022-12-11T01:47:32.051Z,21.42
2022-12-11T01:49:59.562Z,20.95
2022-12-11T01:52:27.079Z,21.92
2022-12-11T01:54:54.500Z,21.61
2022-12-11T01:57:22.154Z,22.26
2022-12-11T01:59:49.730Z,21.59
2022-12-11T02:02:20.838Z,21.85
2022-12-11T02:04:49.933Z,22.11
2022-12-11T02:07:17.730Z,22.20
2022-12-11T02:09:47.102Z,22.16
2022-12-11T02:12:20.657Z,21.29
2022-12-11T02:14:56.041Z,20.83
2022-12-11T02:17:31.315Z,21.53
2022-12-11T02:20:08.447Z,21.13
2022-12-11T02:23:02.349Z,21.90
2022-12-11T02:25:35.902Z,20.18
2022-12-11T02:28:30.289Z,21.65
2022-12-11T02:31:02.498Z,21.56
2022-12-11T02:33:36.621Z,21.97
2022-12-11T02:36:08.160Z,21.57
2022-12-11T02:38:39.643Z,20.34
2022-12-11T02:41:11.053Z,21.75
2022-12-11T02:43:42.169Z,21.83
2022-12-11T02:46:10.673Z,20.38
2022-12-11T02:48:40.726Z,21.26
2022-12-11T02:51:10.693Z,21.52
2022-12-11T02:53:42.501Z,20.80
2022-12-11T02:56:17.122Z,21.50
2022-12-11T02:58:53.975Z,20.49
2022-12-11T03:01:26.435Z,21.31
2022-12-11T03:03:54.415Z,21.46
2022-12-11T03:06:27.802Z,21.85
2022-12-11T03:08:55.414Z,21.05
2022-12-11T03:11:23.157Z,21.66
2022-12-11T03:13:53.341Z,20.52
2022-12-11T03:16:30.289Z,21.25
2022-12-11T03:19:07.136Z,20.48
2022-12-11T03:21:43.147Z,20.76
2022-12-11T03:24:16.583Z,18.18
2022-12-11T03:26:53.094Z,18.44
2022-12-11T03:29:31.753Z,21.31
2022-12-11T03:32:05.327Z,20.73
2022-12-11T03:34:39.722Z,20.74
2022-12-11T03:37:09.274Z,21.18
2022-12-11T03:39:39.407Z,21.99
2022-12-11T03:42:12.148Z,20.95
2022-12-11T03:44:44.487Z,20.06
2022-12-11T03:47:15.322Z,21.50
2022-12-11T03:49:45.177Z,20.91
2022-12-11T03:52:14.818Z,21.65
2022-12-11T03:54:45.470Z,21.32
2022-12-11T03:57:17.053Z,21.54
2022-12-11T03:59:45.975Z,20.21
2022-12-11T04:02:13.488Z,21.43
2022-12-11T04:04:42.116Z,20.90
2022-12-11T04:07:10.038Z,21.31
2022-12-11T04:09:38.037Z,21.51
2022-12-11T04:12:05.879Z,21.30
2022-12-11T04:14:33.565Z,21.62
2022-12-11T04:17:02.760Z,21.10
2022-12-11T04:19:30.449Z,21.42
2022-12-11T04:21:58.118Z,21.35
2022-12-11T04:24:26.133Z,21.54
2022-12-11T04:26:53.716Z,21.05
2022-12-11T04:29:21.355Z,21.71
2022-12-11T04:31:49.406Z,21.15
2022-12-11T04:34:18.327Z,20.85
2022-12-11T04:36:46.337Z,21.36
2022-12-11T04:39:14.004Z,20.76
2022-12-11T04:41:41.461Z,21.33
2022-12-11T04:44:09.069Z,21.45
2022-12-11T04:46:36.982Z,21.17
2022-12-11T04:49:04.690Z,20.88
2022-12-11T04:51:33.646Z,20.31
2022-12-11T04:54:01.296Z,21.57
2022-12-11T04:56:28.877Z,21.39
2022-12-11T04:58:56.346Z,20.09
2022-12-11T05:01:24.333Z,20.17
2022-12-11T05:03:51.933Z,20.40
2022-12-11T05:06:19.585Z,21.04
2022-12-11T05:08:48.737Z,21.45
2022-12-11T05:11:16.900Z,20.31
2022-12-11T05:13:45.473Z,20.90
2022-12-11T05:16:16.008Z,21.16
2022-12-11T05:18:43.765Z,21.09
2022-12-11T05:21:12.874Z,20.43
2022-12-11T05:23:41.398Z,21.49
2022-12-11T05:26:13.801Z,20.94
2022-12-11T05:28:42.186Z,20.76
2022-12-11T05:31:13.694Z,21.36
2022-12-11T05:33:41.598Z,21.26
2022-12-11T05:36:14.011Z,21.65
2022-12-11T05:38:42.568Z,20.16
2022-12-11T05:41:14.080Z,20.46
2022-12-11T05:43:42.357Z,21.50
2022-12-11T05:46:12.312Z,21.57
2022-12-11T05:48:40.725Z,21.32
2022-12-11T05:51:10.319Z,21.29
2022-12-11T05:53:40.118Z,20.46
2022-12-11T05:56:11.425Z,22.02
2022-12-11T05:58:39.880Z,21.10
2022-12-11T06:01:09.843Z,19.93
2022-12-11T06:03:38.223Z,21.14
2022-12-11T06:06:07.678Z,20.21
2022-12-11T06:08:36.245Z,20.71
2022-12-11T06:11:04.804Z,20.60
2022-12-11T06:13:34.035Z,21.09
2022-12-11T06:16:02.391Z,20.35
2022-12-11T06:18:30.464Z,20.93
2022-12-11T06:20:58.190Z,20.44
2022-12-11T06:23:26.049Z,20.73
2022-12-11T06:25:53.721Z,21.32
2022-12-11T06:28:21.925Z,20.72
2022-12-11T06:30:51.655Z,19.75
2022-12-11T06:33:19.318Z,20.17
2022-12-11T06:35:47.597Z,21.06
2022-12-11T06:38:16.037Z,21.16
2022-12-11T06:40:44.575Z,20.55
2022-12-11T06:43:12.966Z,19.21
2022-12-11T06:45:41.563Z,19.03
2022-12-11T06:48:10.875Z,21.12
2022-12-11T06:50:39.502Z,21.00
2022-12-11T06:53:07.883Z,21.10
2022-12-11T06:55:35.974Z,19.20
2022-12-11T06:58:03.727Z,18.18
2022-12-11T07:00:32.449Z,18.31
2022-12-11T07:02:59.878Z,19.23
2022-12-11T07:05:29.443Z,19.21
2022-12-11T07:07:58.369Z,21.06
2022-12-11T07:10:26.814Z,19.77
2022-12-11T07:12:54.551Z,18.83
2022-12-11T07:15:23.087Z,20.38
2022-12-11T07:17:50.937Z,17.50
2022-12-11T07:20:18.727Z,20.55
2022-12-11T07:22:48.208Z,20.58
2022-12-11T07:25:15.825Z,21.13
2022-12-11T07:27:43.566Z,20.71
2022-12-11T07:30:12.950Z,21.03
2022-12-11T07:32:41.553Z,20.85
2022-12-11T07:35:10.495Z,20.66
2022-12-11T07:37:40.369Z,20.63
2022-12-11T07:40:11.025Z,21.29
2022-12-11T07:42:44.466Z,21.23
2022-12-11T07:45:14.575Z,21.01
2022-12-11T07:47:42.952Z,20.39
2022-12-11T07:50:11.075Z,20.21
2022-12-11T07:52:38.637Z,20.53
2022-12-11T07:55:06.720Z,20.76
2022-12-11T07:57:35.666Z,17.72
2022-12-11T08:00:03.691Z,21.66
2022-12-11T08:02:39.708Z,21.53
2022-12-11T08:05:09.103Z,20.70
2022-12-11T08:07:36.739Z,21.35
2022-12-11T08:10:05.756Z,21.20
2022-12-11T08:12:33.321Z,21.12
2022-12-11T08:15:02.786Z,19.27
2022-12-11T08:17:36.663Z,20.54
2022-12-11T08:20:08.434Z,20.71
2022-12-11T08:22:36.334Z,21.08
2022-12-11T08:25:04.547Z,20.45
2022-12-11T08:27:32.530Z,20.46
2022-12-11T08:30:02.336Z,20.66
2022-12-11T08:32:29.948Z,20.67
2022-12-11T08:34:57.802Z,20.34
2022-12-11T08:37:25.438Z,20.07
2022-12-11T08:39:53.017Z,20.47
2022-12-11T08:42:22.051Z,16.99
2022-12-11T08:44:50.142Z,16.96
2022-12-11T08:47:19.971Z,16.62
2022-12-11T08:49:48.838Z,16.87
2022-12-11T08:52:16.482Z,16.68
2022-12-11T08:54:44.582Z,16.69
2022-12-11T08:57:12.484Z,16.56
2022-12-11T08:59:41.708Z,16.44
2022-12-11T09:02:12.532Z,16.66
2022-12-11T09:04:42.567Z,16.65
2022-12-11T09:07:10.095Z,17.04
2022-12-11T09:09:37.728Z,16.66
2022-12-11T09:12:06.257Z,16.93
2022-12-11T09:14:34.050Z,16.39
2022-12-11T09:17:02.403Z,16.29
2022-12-11T09:19:32.414Z,16.47
2022-12-11T09:22:02.325Z,16.22
2022-12-11T09:24:30.253Z,16.48
2022-12-11T09:26:57.775Z,16.21
2022-12-11T09:29:25.438Z,16.47
2022-12-11T09:31:53.157Z,16.39
2022-12-11T09:34:27.440Z,16.49
2022-12-11T09:36:57.206Z,16.39
2022-12-11T09:39:26.534Z,16.85
2022-12-11T09:42:00.351Z,16.80
2022-12-11T09:44:34.909Z,16.53
2022-12-11T09:47:03.254Z,16.58
2022-12-11T09:49:37.828Z,16.43
2022-12-11T09:52:15.784Z,17.02
2022-12-11T09:54:59.792Z,16.71
2022-12-11T09:57:40.458Z,17.17
2022-12-11T10:00:18.263Z,16.34
2022-12-11T10:03:22.138Z,16.70
2022-12-11T10:05:58.335Z,16.96
2022-12-11T10:08:34.659Z,16.71
2022-12-11T10:11:18.285Z,16.60
2022-12-11T10:13:56.128Z,16.50
2022-12-11T10:16:34.972Z,16.43
2022-12-11T10:19:03.160Z,16.75
2022-12-11T10:21:38.711Z,17.08
2022-12-11T10:24:29.369Z,16.56
2022-12-11T10:27:16.536Z,16.57
2022-12-11T10:29:44.370Z,16.70
2022-12-11T10:32:21.757Z,16.53
2022-12-11T10:34:54.291Z,16.39
2022-12-11T10:37:22.077Z,16.40
2022-12-11T10:39:49.591Z,16.52
2022-12-11T10:42:21.065Z,16.31
2022-12-11T10:44:59.907Z,16.44
2022-12-11T10:47:29.043Z,16.51
2022-12-11T10:49:59.836Z,16.28
2022-12-11T10:52:33.009Z,16.49
2022-12-11T10:55:03.618Z,16.41
2022-12-11T10:57:35.168Z,16.33
2022-12-11T11:00:05.612Z,16.65
2022-12-11T11:02:36.297Z,16.34
2022-12-11T11:05:13.926Z,16.36
2022-12-11T11:07:42.647Z,16.67
2022-12-11T11:10:17.824Z,16.20
2022-12-11T11:12:49.643Z,16.42
2022-12-11T11:15:20.454Z,16.19
2022-12-11T11:17:55.094Z,16.41
2022-12-11T11:20:25.747Z,16.38
2022-12-11T11:22:55.532Z,16.36
2022-12-11T11:25:25.497Z,16.10
2022-12-11T11:27:56.613Z,16.47
2022-12-11T11:30:26.352Z,16.20
2022-12-11T11:32:54.811Z,16.25
2022-12-11T11:35:25.035Z,16.30
2022-12-11T11:38:02.797Z,15.92
2022-12-11T11:40:31.988Z,16.40
2022-12-11T11:43:11.444Z,16.20
2022-12-11T11:45:47.118Z,16.39
2022-12-11T11:48:31.218Z,16.09
2022-12-11T11:51:14.314Z,16.13
2022-12-11T11:53:45.129Z,16.21
2022-12-11T11:56:20.387Z,15.95
2022-12-11T11:58:56.674Z,16.27
2022-12-11T12:01:24.559Z,16.22
2022-12-11T12:03:53.162Z,16.31
2022-12-11T12:06:34.649Z,16.21
2022-12-11T12:09:15.158Z,16.37
2022-12-11T12:11:49.732Z,16.09
2022-12-11T12:17:24.819Z,16.07
2022-12-11T12:20:04.642Z,16.33
2022-12-11T12:22:42.105Z,16.00
2022-12-11T12:25:19.481Z,16.24
2022-12-11T12:28:00.042Z,16.23
2022-12-11T12:30:37.864Z,15.97
2022-12-11T12:33:22.725Z,16.05
2022-12-11T12:35:58.833Z,16.19
2022-12-11T12:38:39.289Z,17.11
2022-12-11T12:41:16.545Z,16.94
2022-12-11T12:43:58.049Z,16.84
2022-12-11T12:46:43.109Z,16.18
2022-12-11T12:49:15.894Z,16.11
2022-12-11T12:51:44.549Z,16.88
2022-12-11T12:54:16.537Z,16.52
2022-12-11T12:56:44.833Z,16.42
2022-12-11T12:59:23.673Z,16.37
2022-12-11T13:01:57.320Z,16.68
2022-12-11T13:04:55.923Z,16.24
2022-12-11T13:07:29.214Z,16.30
2022-12-11T13:10:05.084Z,16.13
2022-12-11T13:12:40.658Z,16.53
2022-12-11T13:15:33.647Z,16.26
2022-12-11T13:18:05.188Z,16.03
2022-12-11T13:20:35.045Z,16.06
2022-12-11T13:23:17.150Z,16.53
2022-12-11T13:25:52.086Z,15.94
2022-12-11T13:28:26.345Z,16.25
2022-12-11T13:31:00.048Z,16.06
2022-12-11T13:33:30.586Z,16.54
2022-12-11T13:36:28.913Z,16.34
2022-12-11T13:39:01.389Z,16.53
2022-12-11T13:41:34.103Z,16.54
2022-12-11T13:44:02.827Z,16.28
2022-12-11T13:46:35.438Z,16.15
2022-12-11T13:49:07.330Z,16.24
2022-12-11T13:51:36.552Z,16.24
2022-12-11T13:54:07.456Z,16.41
2022-12-11T13:56:35.505Z,16.32
2022-12-11T13:59:03.821Z,16.60
2022-12-11T14:01:35.545Z,17.07
2022-12-11T14:04:12.040Z,16.53
2022-12-11T14:06:41.299Z,16.62
2022-12-11T14:09:10.470Z,16.24
2022-12-11T14:11:40.935Z,16.88
2022-12-11T14:14:19.209Z,17.11
2022-12-11T14:16:49.023Z,16.46
2022-12-11T14:19:21.595Z,17.35
2022-12-11T14:21:58.097Z,17.48
2022-12-11T14:24:27.534Z,16.58
2022-12-11T14:26:56.025Z,16.60
2022-12-11T14:29:30.257Z,16.63
2022-12-11T14:32:02.449Z,17.06
2022-12-11T14:34:35.788Z,16.95
2022-12-11T14:37:07.991Z,17.14
2022-12-11T14:39:41.501Z,17.96
2022-12-11T14:42:15.521Z,17.35
2022-12-11T14:44:50.962Z,17.80
2022-12-11T14:47:22.538Z,17.45
2022-12-11T14:49:58.009Z,17.52
2022-12-11T14:52:31.053Z,18.19
2022-12-11T14:55:06.615Z,17.77
2022-12-11T14:57:36.497Z,18.79
2022-12-11T15:00:06.349Z,18.23
2022-12-11T15:02:35.393Z,17.78
2022-12-11T15:05:08.580Z,17.51
2022-12-11T15:07:37.912Z,17.46
2022-12-11T15:10:06.283Z,17.43
2022-12-11T15:12:34.534Z,18.90
2022-12-11T15:15:07.029Z,18.09
2022-12-11T15:17:36.057Z,18.14
2022-12-11T15:20:09.228Z,17.86
2022-12-11T15:22:37.122Z,18.98
2022-12-11T15:25:06.158Z,18.09
2022-12-11T15:27:36.635Z,19.50
2022-12-11T15:30:24.881Z,18.10
2022-12-11T15:33:06.041Z,18.18
2022-12-11T15:35:35.533Z,20.05
2022-12-11T15:38:03.804Z,18.57
2022-12-11T15:40:32.258Z,20.05
2022-12-11T15:43:03.472Z,19.23
2022-12-11T15:45:31.394Z,20.11
2022-12-11T15:47:58.853Z,19.41
2022-12-11T15:50:28.235Z,20.39
2022-12-11T15:52:58.275Z,19.10
2022-12-11T15:55:29.583Z,20.48
2022-12-11T15:58:01.446Z,20.20
2022-12-11T16:00:30.385Z,18.82
2022-12-11T16:02:58.689Z,19.88
2022-12-11T16:05:26.891Z,20.04
2022-12-11T16:07:56.986Z,20.04
2022-12-11T16:10:26.321Z,20.73
2022-12-11T16:12:54.287Z,19.38
2022-12-11T16:15:24.049Z,20.71
2022-12-11T16:18:00.111Z,19.54
2022-12-11T16:20:28.389Z,20.00
2022-12-11T16:22:57.770Z,20.38
2022-12-11T16:25:25.881Z,19.42
2022-12-11T16:27:56.569Z,21.81
2022-12-11T16:30:25.842Z,21.55
2022-12-11T16:32:55.325Z,21.00
2022-12-11T16:35:22.953Z,20.82
2022-12-11T16:37:51.711Z,19.74
2022-12-11T16:40:22.366Z,20.22
2022-12-11T16:42:50.626Z,21.07
2022-12-11T16:45:20.084Z,20.18
2022-12-11T16:47:49.669Z,20.45
2022-12-11T16:50:18.457Z,19.90
2022-12-11T16:52:46.926Z,20.65
2022-12-11T16:55:14.917Z,20.94
2022-12-11T16:57:43.975Z,20.26
2022-12-11T17:00:12.632Z,19.65
2022-12-11T17:02:40.551Z,19.68
2022-12-11T17:05:08.742Z,20.01
2022-12-11T17:07:37.872Z,19.35
2022-12-11T17:10:06.060Z,19.84
2022-12-11T17:12:33.783Z,19.90
2022-12-11T17:15:04.168Z,20.71
2022-12-11T17:17:33.032Z,20.23
2022-12-11T17:20:01.675Z,20.07
2022-12-11T17:22:31.564Z,19.17
2022-12-11T17:24:59.590Z,20.06
2022-12-11T17:27:27.986Z,20.53
2022-12-11T17:29:55.824Z,20.75
2022-12-11T17:32:25.469Z,19.76
2022-12-11T17:34:53.407Z,19.66
2022-12-11T17:37:22.307Z,21.03
2022-12-11T17:39:50.206Z,20.25
2022-12-11T17:42:17.765Z,19.51
2022-12-11T17:44:45.548Z,20.97
2022-12-11T17:47:13.278Z,19.87
2022-12-11T17:49:42.451Z,20.09
2022-12-11T17:52:10.136Z,20.42
2022-12-11T17:54:37.741Z,20.09
2022-12-11T17:57:06.294Z,19.68
2022-12-11T17:59:33.948Z,19.49
2022-12-11T18:02:01.711Z,19.27
2022-12-11T18:04:29.659Z,19.85
2022-12-11T18:06:58.615Z,20.73
2022-12-11T18:09:26.294Z,19.80
2022-12-11T18:11:53.738Z,19.64
2022-12-11T18:14:21.333Z,20.07
2022-12-11T18:16:48.989Z,20.26
2022-12-11T18:19:16.860Z,21.30
2022-12-11T18:21:45.047Z,19.56
2022-12-11T18:24:14.497Z,19.64
2022-12-11T18:26:42.835Z,19.67
2022-12-11T18:29:10.838Z,19.75
2022-12-11T18:31:42.444Z,19.43
2022-12-11T18:34:11.271Z,19.60
2022-12-11T18:36:38.891Z,19.43
2022-12-11T18:39:06.456Z,19.47
2022-12-11T18:41:36.306Z,20.01
2022-12-11T18:44:08.142Z,20.18
2022-12-11T18:46:37.460Z,19.33
2022-12-11T18:49:05.194Z,19.55
2022-12-11T18:51:32.863Z,20.55
2022-12-11T18:54:01.278Z,19.59
2022-12-11T18:56:28.886Z,20.28
2022-12-11T18:58:57.932Z,19.98
2022-12-11T19:01:28.990Z,21.47
2022-12-11T19:04:03.255Z,20.04
2022-12-11T19:06:33.988Z,20.50
2022-12-11T19:09:02.782Z,20.69
2022-12-11T19:11:32.378Z,20.07
2022-12-11T19:14:01.670Z,21.09
2022-12-11T19:16:31.274Z,20.38
2022-12-11T19:18:59.688Z,19.61
2022-12-11T19:21:28.776Z,20.82
2022-12-11T19:23:57.147Z,21.61
2022-12-11T19:26:25.052Z,20.32
2022-12-11T19:28:52.814Z,20.93
2022-12-11T19:31:23.572Z,21.45
2022-12-11T19:33:51.328Z,20.80
2022-12-11T19:36:21.805Z,19.47
2022-12-11T19:38:49.487Z,20.24
2022-12-11T19:41:19.572Z,20.68
2022-12-11T19:43:47.994Z,20.51
2022-12-11T19:46:16.216Z,19.90
2022-12-11T19:48:45.926Z,20.14
2022-12-11T19:51:14.411Z,20.72
2022-12-11T19:53:46.107Z,20.64
2022-12-11T19:56:14.900Z,19.78
2022-12-11T19:58:42.749Z,20.06
2022-12-11T20:01:10.720Z,20.88
2022-12-11T20:03:39.152Z,22.08
2022-12-11T20:06:08.815Z,20.10
2022-12-11T20:08:44.906Z,19.72
2022-12-11T20:11:18.058Z,21.71
2022-12-11T20:13:46.749Z,20.70
2022-12-11T20:16:15.547Z,20.52
2022-12-11T20:18:43.061Z,21.85
2022-12-11T20:21:14.996Z,19.75
2022-12-11T20:23:43.052Z,19.98
2022-12-11T20:26:14.087Z,20.76
2022-12-11T20:28:43.700Z,20.50
2022-12-11T20:31:19.498Z,20.29
2022-12-11T20:33:48.161Z,21.59
2022-12-11T20:36:19.949Z,20.98
2022-12-11T20:38:47.664Z,20.12
2022-12-11T20:41:18.991Z,20.03
2022-12-11T20:43:47.822Z,19.88
2022-12-11T20:46:17.459Z,19.42
2022-12-11T20:48:45.992Z,19.63
2022-12-11T20:51:23.979Z,19.30
2022-12-11T20:53:54.713Z,19.37
2022-12-11T20:56:22.392Z,19.71
2022-12-11T20:58:49.937Z,19.24
2022-12-11T21:01:20.891Z,19.40
2022-12-11T21:03:49.268Z,19.96
2022-12-11T21:06:23.938Z,19.55
2022-12-11T21:08:52.334Z,19.62
2022-12-11T21:11:20.580Z,19.70
2022-12-11T21:13:50.754Z,19.76
2022-12-11T21:16:20.146Z,20.25
2022-12-11T21:18:48.156Z,20.23
2022-12-11T21:21:16.644Z,20.81
2022-12-11T21:23:46.709Z,20.14
2022-12-11T21:26:14.578Z,20.51
2022-12-11T21:28:42.345Z,20.96
2022-12-11T21:31:13.815Z,20.07
2022-12-11T21:33:41.605Z,20.46
2022-12-11T21:36:11.529Z,21.13
2022-12-11T21:38:40.048Z,20.55
2022-12-11T21:41:10.977Z,19.52
2022-12-11T21:43:52.608Z,20.38
2022-12-11T21:46:28.036Z,19.80
2022-12-11T21:48:55.780Z,19.70
2022-12-11T21:51:25.017Z,19.98
2022-12-11T21:53:53.281Z,20.65
2022-12-11T21:56:23.754Z,19.91
2022-12-11T21:58:52.577Z,20.74
2022-12-11T22:01:21.879Z,20.90
2022-12-11T22:03:50.310Z,20.26
2022-12-11T22:06:18.347Z,21.25
2022-12-11T22:08:46.085Z,21.19
2022-12-11T22:11:14.699Z,21.13
2022-12-11T22:13:43.789Z,21.03
2022-12-11T22:16:11.406Z,20.04
2022-12-11T22:18:39.122Z,20.98
2022-12-11T22:21:06.962Z,21.82
2022-12-11T22:23:34.877Z,20.64
2022-12-11T22:26:02.849Z,20.62
2022-12-11T22:28:30.398Z,21.10
2022-12-11T22:30:59.464Z,21.05
2022-12-11T22:33:27.550Z,20.30
2022-12-11T22:35:59.265Z,20.31
2022-12-11T22:38:27.166Z,20.70
2022-12-11T22:40:55.039Z,20.46
2022-12-11T22:43:22.673Z,21.32
2022-12-11T22:45:50.388Z,21.20
2022-12-11T22:48:19.475Z,20.75
2022-12-11T22:50:46.950Z,20.28
2022-12-11T22:53:14.411Z,20.42
2022-12-11T22:55:42.204Z,20.33
2022-12-11T22:58:09.636Z,20.25
2022-12-11T23:00:37.657Z,20.44
2022-12-11T23:03:05.616Z,20.48
2022-12-11T23:05:34.725Z,21.64
2022-12-11T23:08:02.840Z,21.41
2022-12-11T23:10:30.984Z,20.66
2022-12-11T23:12:58.475Z,21.06
2022-12-11T23:15:26.942Z,20.22
2022-12-11T23:17:55.453Z,19.87
2022-12-11T23:20:22.953Z,20.49
2022-12-11T23:22:51.973Z,19.82
2022-12-11T23:25:19.744Z,19.88
2022-12-11T23:27:47.325Z,19.75
2022-12-11T23:30:15.036Z,21.32
2022-12-11T23:32:42.741Z,19.84
2022-12-11T23:35:10.629Z,20.75
2022-12-11T23:37:38.370Z,20.32
2022-12-11T23:40:09.203Z,19.76
2022-12-11T23:42:37.074Z,21.42
2022-12-11T23:45:05.976Z,19.85
2022-12-11T23:47:33.884Z,20.21
2022-12-11T23:50:01.285Z,20.34
2022-12-11T23:52:28.806Z,19.73
2022-12-11T23:54:56.246Z,20.52
2022-12-11T23:57:25.117Z,19.72
2022-12-11T23:59:52.601Z,19.59
